Time;durP1;ratioP1;P1;durP2;ratioP2;P2;SDS_P1;SDS_P2;PMS_P1;PMS_P2;Temp;Humidity;BMP_temperature;BMP_pressure;BME280_temperature;BME280_humidity;BME280_pressure;Samples;Min_cycle;Max_cycle;Signal;HPM_P1;HPM_P2
2023/04/01 00:01:14;;;;;;;0.60;0.60;;;11.70;99.90;;;;;;4992718;28;20897;-63
2023/04/01 00:03:42;;;;;;;0.60;0.60;;;11.70;99.90;;;;;;4993464;28;20214;-63
2023/04/01 00:06:13;;;;;;;0.57;0.57;;;11.60;99.90;;;;;;4993572;28;20724;-61
2023/04/01 00:08:40;;;;;;;0.60;0.60;;;11.60;99.90;;;;;;4993751;28;20206;-62
2023/04/01 00:11:07;;;;;;;0.80;0.80;;;11.60;99.90;;;;;;4993465;28;20297;-62
2023/04/01 00:13:33;;;;;;;0.60;0.60;;;11.70;99.90;;;;;;4994338;28;20566;-63
2023/04/01 00:16:01;;;;;;;0.70;0.70;;;11.60;99.90;;;;;;4992788;28;20230;-62
2023/04/01 00:18:28;;;;;;;0.50;0.50;;;11.70;99.90;;;;;;4993356;28;20206;-62
2023/04/01 00:20:56;;;;;;;0.40;0.40;;;11.70;99.90;;;;;;4992872;28;20296;-64
2023/04/01 00:23:23;;;;;;;0.60;0.60;;;11.60;99.90;;;;;;4993846;28;20214;-62
2023/04/01 00:25:50;;;;;;;0.70;0.70;;;11.60;99.90;;;;;;4993296;28;20317;-62
2023/04/01 00:28:18;;;;;;;0.63;0.63;;;11.60;99.90;;;;;;4992993;28;20214;-63
2023/04/01 00:30:45;;;;;;;0.50;0.50;;;11.60;99.90;;;;;;4991061;28;20206;-63
2023/04/01 00:33:12;;;;;;;0.53;0.53;;;11.60;99.90;;;;;;4992291;28;20209;-62
2023/04/01 00:35:39;;;;;;;0.50;0.50;;;11.60;99.90;;;;;;4983545;28;20221;-63
2023/04/01 00:38:07;;;;;;;0.40;0.40;;;11.70;99.90;;;;;;4992582;28;20206;-63
2023/04/01 00:40:36;;;;;;;0.37;0.37;;;11.60;99.90;;;;;;4992217;28;20585;-61
2023/04/01 00:43:03;;;;;;;0.60;0.60;;;11.70;99.90;;;;;;4993158;28;20672;-63
2023/04/01 00:45:34;;;;;;;0.60;0.60;;;11.70;99.90;;;;;;4992756;28;20229;-62
2023/04/01 00:48:05;;;;;;;0.60;0.60;;;11.60;99.90;;;;;;4992673;28;20206;-63
2023/04/01 00:50:33;;;;;;;0.30;0.30;;;11.60;99.90;;;;;;4992705;28;20214;-62
2023/04/01 00:53:02;;;;;;;0.40;0.40;;;11.60;99.90;;;;;;4992890;28;20209;-66
2023/04/01 00:55:34;;;;;;;0.20;0.20;;;11.50;99.90;;;;;;4993358;28;20587;-62
2023/04/01 00:58:04;;;;;;;0.20;0.20;;;11.50;99.90;;;;;;4993529;28;20201;-63
2023/04/01 01:00:32;;;;;;;0.40;0.40;;;11.40;99.90;;;;;;4992466;28;20276;-61
2023/04/01 01:02:59;;;;;;;0.30;0.30;;;11.30;99.90;;;;;;4997140;28;20214;-64
2023/04/01 01:05:38;;;;;;;0.30;0.30;;;11.40;99.90;;;;;;4993762;28;20225;-62
2023/04/01 01:08:14;;;;;;;0.47;0.47;;;11.40;99.90;;;;;;4992897;28;20222;-62
2023/04/01 01:10:47;;;;;;;0.20;0.20;;;11.30;99.90;;;;;;4993283;28;20502;-63
2023/04/01 01:13:21;;;;;;;0.40;0.40;;;11.30;99.90;;;;;;4992247;28;20206;-62
2023/04/01 01:15:51;;;;;;;0.20;0.20;;;11.30;99.90;;;;;;4992221;28;20256;-63
2023/04/01 01:18:24;;;;;;;0.30;0.30;;;11.30;99.90;;;;;;4989621;28;20731;-62
2023/04/01 01:21:11;;;;;;;0.37;0.37;;;11.30;99.90;;;;;;4991487;28;20210;-63
2023/04/01 01:24:20;;;;;;;0.23;0.23;;;11.40;99.90;;;;;;4993095;28;20584;-63
2023/04/01 01:27:02;;;;;;;0.10;0.10;;;11.30;99.90;;;;;;5012965;28;20253;-63
2023/04/01 01:29:53;;;;;;;0.33;0.33;;;11.30;99.90;;;;;;4998685;28;20210;-62
2023/04/01 01:32:47;;;;;;;0.20;0.20;;;11.30;99.90;;;;;;4995971;28;20581;-62
2023/04/01 01:35:23;;;;;;;0.30;0.30;;;11.30;99.90;;;;;;4956475;28;20709;-63
2023/04/01 01:37:53;;;;;;;0.30;0.30;;;11.30;99.90;;;;;;4998759;28;20260;-63
2023/04/01 01:40:21;;;;;;;0.10;0.10;;;11.30;99.90;;;;;;4997279;28;20213;-61
2023/04/01 01:42:54;;;;;;;0.30;0.30;;;11.30;99.90;;;;;;5000891;28;20221;-62
2023/04/01 01:45:23;;;;;;;0.20;0.20;;;11.20;99.90;;;;;;4999890;28;20238;-60
2023/04/01 01:47:51;;;;;;;0.20;0.20;;;11.10;99.90;;;;;;5000333;28;20216;-62
2023/04/01 01:50:21;;;;;;;0.10;0.10;;;11.10;99.90;;;;;;4998490;28;20214;-64
2023/04/01 01:52:48;;;;;;;0.20;0.20;;;11.10;99.90;;;;;;4996064;28;20217;-61
2023/04/01 01:55:33;;;;;;;0.10;0.10;;;11.10;99.90;;;;;;4996990;28;20226;-63
2023/04/01 01:58:05;;;;;;;0.30;0.30;;;11.10;99.90;;;;;;4995704;28;20221;-64
2023/04/01 02:00:33;;;;;;;0.50;0.50;;;11.10;99.90;;;;;;4995633;28;20209;-62
2023/04/01 02:03:01;;;;;;;0.27;0.27;;;11.10;99.90;;;;;;4994929;28;20210;-62
2023/04/01 02:05:31;;;;;;;0.35;0.35;;;11.10;99.90;;;;;;4994955;28;20232;-63
2023/04/01 02:08:03;;;;;;;0.37;0.37;;;11.10;99.90;;;;;;4995005;28;20210;-64
2023/04/01 02:10:35;;;;;;;0.30;0.30;;;11.10;99.90;;;;;;4994320;28;20212;-63
2023/04/01 02:13:08;;;;;;;0.30;0.30;;;11.20;99.90;;;;;;4995167;28;20205;-63
2023/04/01 02:15:42;;;;;;;0.30;0.30;;;11.10;99.90;;;;;;4996162;28;20232;-61
2023/04/01 02:18:10;;;;;;;0.50;0.30;;;11.20;99.90;;;;;;4995965;28;20210;-62
2023/04/01 02:20:39;;;;;;;0.30;0.30;;;11.30;99.90;;;;;;4996266;28;20308;-62
2023/04/01 02:23:08;;;;;;;0.30;0.30;;;11.10;99.90;;;;;;4996800;28;20214;-62
2023/04/01 02:25:37;;;;;;;0.23;0.23;;;11.10;99.90;;;;;;4995114;28;20634;-62
2023/04/01 02:28:06;;;;;;;0.20;0.20;;;11.10;99.90;;;;;;4995062;28;20216;-64
2023/04/01 02:30:36;;;;;;;0.20;0.20;;;11.20;99.90;;;;;;5000529;28;20661;-62
2023/04/01 02:33:03;;;;;;;0.30;0.30;;;11.10;99.90;;;;;;5002076;28;20212;-66
2023/04/01 02:35:30;;;;;;;0.37;0.37;;;11.10;99.90;;;;;;5002223;28;20226;-64
2023/04/01 02:37:59;;;;;;;0.30;0.30;;;11.10;99.90;;;;;;4998674;28;20234;-63
2023/04/01 02:40:26;;;;;;;0.20;0.20;;;11.00;99.90;;;;;;4996805;28;20937;-62
2023/04/01 02:42:53;;;;;;;0.37;0.37;;;11.00;99.90;;;;;;4995289;28;20301;-63
2023/04/01 02:45:20;;;;;;;0.40;0.40;;;11.10;99.90;;;;;;4994485;28;20276;-62
2023/04/01 02:47:47;;;;;;;0.30;0.30;;;10.90;99.90;;;;;;4994300;28;20202;-62
2023/04/01 02:50:14;;;;;;;0.30;0.30;;;10.90;99.90;;;;;;4993668;28;20206;-62
2023/04/01 02:52:41;;;;;;;0.30;0.30;;;10.90;99.90;;;;;;4996110;28;20743;-63
2023/04/01 02:55:10;;;;;;;0.40;0.40;;;10.90;99.90;;;;;;4994669;28;20234;-63
2023/04/01 02:57:36;;;;;;;0.30;0.30;;;10.90;99.90;;;;;;4996954;28;20293;-62
2023/04/01 03:00:05;;;;;;;0.30;0.30;;;10.90;99.90;;;;;;4995859;28;20209;-62
2023/04/01 03:02:37;;;;;;;0.43;0.40;;;10.90;99.90;;;;;;4996849;28;20194;-63
2023/04/01 03:05:05;;;;;;;0.33;0.33;;;10.90;99.90;;;;;;5007449;28;20213;-63
2023/04/01 03:07:32;;;;;;;0.50;0.50;;;10.90;99.90;;;;;;5001147;28;20209;-63
2023/04/01 03:09:59;;;;;;;0.50;0.50;;;11.00;99.90;;;;;;4994066;28;20202;-63
2023/04/01 03:12:27;;;;;;;0.30;0.30;;;11.00;99.90;;;;;;4993612;28;20635;-64
2023/04/01 03:14:54;;;;;;;0.50;0.50;;;10.90;99.90;;;;;;4993473;28;20210;-63
2023/04/01 03:17:21;;;;;;;0.40;0.40;;;11.00;99.90;;;;;;4993737;28;20236;-63
2023/04/01 03:19:47;;;;;;;0.33;0.33;;;11.00;99.90;;;;;;4993480;28;20210;-64
2023/04/01 03:22:14;;;;;;;0.40;0.40;;;11.00;99.90;;;;;;4993868;28;20208;-62
2023/04/01 03:24:41;;;;;;;0.50;0.50;;;11.00;99.90;;;;;;4993410;28;20214;-63
2023/04/01 03:27:08;;;;;;;0.50;0.50;;;11.00;99.90;;;;;;4993295;28;20698;-62
2023/04/01 03:29:36;;;;;;;0.60;0.60;;;11.00;99.90;;;;;;4993051;28;20206;-63
2023/04/01 03:32:03;;;;;;;0.80;0.80;;;11.00;99.90;;;;;;4993085;28;20293;-62
2023/04/01 03:34:30;;;;;;;0.90;0.90;;;11.00;99.90;;;;;;4993768;28;20210;-65
2023/04/01 03:36:57;;;;;;;0.80;0.80;;;11.00;99.90;;;;;;4993139;28;20240;-62
2023/04/01 03:39:25;;;;;;;0.53;0.53;;;11.10;99.90;;;;;;4993166;28;20212;-62
2023/04/01 03:41:51;;;;;;;0.50;0.50;;;11.00;99.90;;;;;;4993017;28;20697;-64
2023/04/01 03:44:18;;;;;;;0.40;0.40;;;11.10;99.90;;;;;;4992871;28;20737;-63
2023/04/01 03:46:46;;;;;;;0.70;0.70;;;11.10;99.90;;;;;;4992970;28;20229;-63
2023/04/01 03:49:13;;;;;;;0.90;0.90;;;11.10;99.90;;;;;;4992583;28;20676;-62
2023/04/01 03:51:41;;;;;;;0.90;0.90;;;11.10;99.90;;;;;;4991692;28;20325;-64
2023/04/01 03:54:09;;;;;;;0.87;0.87;;;11.10;99.90;;;;;;4992573;28;20233;-62
2023/04/01 03:56:35;;;;;;;0.70;0.70;;;11.10;99.90;;;;;;4992733;28;20236;-63
2023/04/01 03:59:03;;;;;;;0.67;0.67;;;11.10;99.90;;;;;;4992692;28;20214;-63
2023/04/01 04:01:30;;;;;;;0.70;0.70;;;11.10;99.90;;;;;;4992952;28;20206;-62
2023/04/01 04:03:59;;;;;;;0.80;0.80;;;11.10;99.90;;;;;;4993123;28;20217;-63
2023/04/01 04:06:30;;;;;;;0.80;0.80;;;11.20;99.90;;;;;;4992771;28;20230;-62
2023/04/01 04:08:57;;;;;;;0.70;0.70;;;11.20;99.90;;;;;;4992985;28;20206;-63
2023/04/01 04:11:24;;;;;;;0.90;0.90;;;11.30;99.90;;;;;;4997724;28;20213;-64
2023/04/01 04:13:52;;;;;;;0.97;0.87;;;11.10;99.90;;;;;;4997284;28;20729;-63
2023/04/01 04:16:19;;;;;;;0.77;0.77;;;11.10;99.90;;;;;;4994210;28;20233;-64
2023/04/01 04:18:46;;;;;;;0.63;0.63;;;11.10;99.90;;;;;;4996257;28;20209;-63
2023/04/01 04:21:15;;;;;;;0.60;0.60;;;11.20;99.90;;;;;;5003596;28;20213;-63
2023/04/01 04:23:43;;;;;;;0.60;0.60;;;11.20;99.90;;;;;;5005557;28;20216;-64
2023/04/01 04:26:13;;;;;;;0.70;0.70;;;11.20;99.90;;;;;;5002948;28;20316;-62
2023/04/01 04:28:40;;;;;;;0.50;0.50;;;11.20;99.90;;;;;;5003977;28;20210;-64
2023/04/01 04:31:07;;;;;;;0.40;0.40;;;11.30;99.90;;;;;;5001499;28;20240;-62
2023/04/01 04:33:36;;;;;;;0.50;0.50;;;11.20;99.90;;;;;;4993945;28;20213;-64
2023/04/01 04:36:03;;;;;;;0.60;0.60;;;11.10;99.90;;;;;;4992711;28;20234;-63
2023/04/01 04:38:32;;;;;;;0.40;0.40;;;11.10;99.90;;;;;;4996100;28;20685;-63
2023/04/01 04:40:58;;;;;;;0.50;0.50;;;11.10;99.90;;;;;;4999448;28;20206;-64
2023/04/01 04:43:25;;;;;;;0.43;0.43;;;11.10;99.90;;;;;;5005142;28;20214;-62
2023/04/01 04:45:52;;;;;;;0.50;0.50;;;11.10;99.90;;;;;;5005350;28;20253;-63
2023/04/01 04:48:20;;;;;;;0.47;0.47;;;11.00;99.90;;;;;;5005751;28;20301;-63
2023/04/01 04:50:48;;;;;;;0.43;0.43;;;11.00;99.90;;;;;;5005819;28;20210;-65
2023/04/01 04:53:16;;;;;;;0.40;0.40;;;11.00;99.90;;;;;;5007241;28;20210;-64
2023/04/01 04:55:48;;;;;;;0.53;0.53;;;11.00;99.90;;;;;;5003703;28;20230;-65
2023/04/01 04:58:15;;;;;;;0.70;0.70;;;11.00;99.90;;;;;;4995668;28;20226;-63
2023/04/01 05:00:42;;;;;;;0.60;0.60;;;10.90;99.90;;;;;;4988436;28;20213;-64
2023/04/01 05:03:10;;;;;;;0.50;0.50;;;10.90;99.90;;;;;;4994823;28;20210;-62
2023/04/01 05:05:36;;;;;;;0.73;0.73;;;10.90;99.90;;;;;;4995035;28;20225;-65
2023/04/01 05:08:04;;;;;;;0.70;0.70;;;10.90;99.90;;;;;;4996814;28;20208;-64
2023/04/01 05:10:31;;;;;;;0.90;0.90;;;10.90;99.90;;;;;;4999736;28;20210;-64
2023/04/01 05:12:59;;;;;;;0.80;0.80;;;10.90;99.90;;;;;;4995901;28;20241;-65
2023/04/01 05:15:26;;;;;;;0.90;0.90;;;10.90;99.90;;;;;;4994285;28;20236;-64
2023/04/01 05:17:53;;;;;;;0.70;0.70;;;10.90;99.90;;;;;;4992937;28;20229;-64
2023/04/01 05:20:20;;;;;;;0.60;0.60;;;10.90;99.90;;;;;;4992489;28;20206;-63
2023/04/01 05:22:47;;;;;;;0.70;0.70;;;10.90;99.90;;;;;;4992624;28;20206;-65
2023/04/01 05:25:13;;;;;;;0.70;0.70;;;10.90;99.90;;;;;;4993044;28;20225;-63
2023/04/01 05:27:40;;;;;;;0.70;0.70;;;10.90;99.90;;;;;;4992968;28;20213;-65
2023/04/01 05:30:10;;;;;;;0.70;0.70;;;10.80;99.90;;;;;;4992500;28;20688;-63
2023/04/01 05:32:37;;;;;;;0.67;0.67;;;10.90;99.90;;;;;;4993135;28;20212;-64
2023/04/01 05:35:05;;;;;;;0.65;0.65;;;10.90;99.90;;;;;;4994076;28;20218;-64
2023/04/01 05:37:33;;;;;;;0.70;0.70;;;10.80;99.90;;;;;;4994307;28;20222;-64
2023/04/01 05:40:00;;;;;;;0.60;0.60;;;10.80;99.90;;;;;;4993255;28;20206;-64
2023/04/01 05:42:27;;;;;;;0.87;0.70;;;10.80;99.90;;;;;;4993117;28;20676;-64
2023/04/01 05:44:55;;;;;;;0.83;0.83;;;10.80;99.90;;;;;;4992300;28;20210;-65
2023/04/01 05:47:23;;;;;;;0.83;0.83;;;10.80;99.90;;;;;;4990708;28;20207;-64
2023/04/01 05:49:50;;;;;;;0.50;0.50;;;10.80;99.90;;;;;;4992230;28;20692;-63
2023/04/01 05:52:17;;;;;;;0.70;0.70;;;10.80;99.90;;;;;;4992310;28;20209;-64
2023/04/01 05:54:44;;;;;;;0.87;0.87;;;10.80;99.90;;;;;;4996793;28;20218;-64
2023/04/01 05:57:11;;;;;;;0.60;0.60;;;10.80;99.90;;;;;;4992710;28;20226;-63
2023/04/01 05:59:39;;;;;;;0.60;0.60;;;10.80;99.90;;;;;;4987079;28;20213;-62
2023/04/01 06:02:06;;;;;;;0.60;0.60;;;10.80;99.90;;;;;;4998924;28;20198;-65
2023/04/01 06:04:40;;;;;;;0.70;0.70;;;10.80;99.90;;;;;;4998898;28;20969;-63
2023/04/01 06:07:12;;;;;;;0.75;0.75;;;10.80;99.90;;;;;;4983471;28;20234;-64
2023/04/01 06:09:40;;;;;;;0.65;0.65;;;10.80;99.90;;;;;;4999450;28;20213;-63
2023/04/01 06:12:38;;;;;;;0.67;0.67;;;10.80;99.90;;;;;;4997745;28;20218;-64
2023/04/01 06:15:19;;;;;;;0.47;0.47;;;10.80;99.90;;;;;;4968973;28;20226;-65
2023/04/01 06:18:02;;;;;;;0.70;0.70;;;10.90;99.90;;;;;;4985900;28;20733;-65
2023/04/01 06:20:42;;;;;;;0.70;0.70;;;10.90;99.90;;;;;;4994337;28;20305;-64
2023/04/01 06:23:43;;;;;;;0.53;0.53;;;10.90;99.90;;;;;;4998778;28;20261;-63
2023/04/01 06:26:17;;;;;;;0.77;0.77;;;10.90;99.90;;;;;;4989025;28;20222;-62
2023/04/01 06:29:17;;;;;;;0.87;0.87;;;10.90;99.90;;;;;;5003145;28;20197;-62
2023/04/01 06:32:12;;;;;;;0.90;0.90;;;10.90;99.90;;;;;;4974926;28;20646;-65
2023/04/01 06:34:57;;;;;;;0.80;0.80;;;10.90;99.90;;;;;;4994709;28;20870;-62
2023/04/01 06:37:52;;;;;;;0.70;0.70;;;11.00;99.90;;;;;;4985354;28;20230;-63
2023/04/01 06:40:47;;;;;;;0.80;0.63;;;11.00;99.90;;;;;;4993100;28;20216;-63
2023/04/01 06:43:20;;;;;;;0.90;0.90;;;11.00;99.90;;;;;;4994404;28;20224;-65
2023/04/01 06:45:54;;;;;;;0.60;0.60;;;11.00;99.90;;;;;;4994378;28;20222;-63
2023/04/01 06:48:48;;;;;;;0.73;0.73;;;11.00;99.90;;;;;;4994795;28;20209;-65
2023/04/01 06:51:26;;;;;;;1.10;1.00;;;11.00;99.90;;;;;;4994422;28;20206;-64
2023/04/01 06:54:01;;;;;;;1.20;1.20;;;11.00;99.90;;;;;;4994677;28;20201;-63
2023/04/01 06:56:30;;;;;;;1.60;1.50;;;11.00;99.90;;;;;;4994780;28;20327;-67
2023/04/01 06:58:59;;;;;;;1.20;1.20;;;11.00;99.90;;;;;;4996724;28;20229;-63
2023/04/01 07:01:33;;;;;;;1.23;1.13;;;11.00;99.90;;;;;;4998871;28;20754;-64
2023/04/01 07:04:02;;;;;;;1.70;1.60;;;11.00;99.90;;;;;;4996035;28;20210;-65
2023/04/01 07:06:33;;;;;;;2.33;2.22;;;11.00;99.90;;;;;;4995104;28;20225;-65
2023/04/01 07:09:05;;;;;;;1.50;1.40;;;11.10;99.90;;;;;;4995093;28;20232;-65
2023/04/01 07:11:35;;;;;;;1.40;1.30;;;11.00;99.90;;;;;;4994980;28;20202;-63
2023/04/01 07:14:05;;;;;;;1.60;1.50;;;11.00;99.90;;;;;;4995069;28;20202;-64
2023/04/01 07:16:36;;;;;;;1.90;1.80;;;11.00;99.90;;;;;;4994914;28;20226;-64
2023/04/01 07:19:09;;;;;;;2.17;2.08;;;11.00;99.90;;;;;;4993910;28;20705;-64
2023/04/01 07:21:41;;;;;;;1.60;1.50;;;10.90;99.90;;;;;;4994441;28;20206;-64
2023/04/01 07:24:15;;;;;;;1.80;1.70;;;11.00;99.90;;;;;;4994634;28;20206;-63
2023/04/01 07:26:42;;;;;;;1.83;1.73;;;11.00;99.90;;;;;;4993924;28;20236;-65
2023/04/01 07:29:12;;;;;;;2.28;2.17;;;11.00;99.90;;;;;;4994139;28;20201;-65
2023/04/01 07:31:52;;;;;;;1.97;1.87;;;11.00;99.90;;;;;;4993571;28;20206;-63
2023/04/01 07:34:24;;;;;;;1.90;1.80;;;11.10;99.90;;;;;;4993820;28;20209;-63
2023/04/01 07:36:57;;;;;;;1.58;1.48;;;11.10;99.90;;;;;;4994192;28;20399;-65
2023/04/01 07:39:38;;;;;;;1.20;1.10;;;11.10;99.90;;;;;;4994882;28;20233;-65
2023/04/01 07:42:16;;;;;;;1.00;1.00;;;11.10;99.90;;;;;;4994929;28;20205;-64
2023/04/01 07:44:54;;;;;;;1.00;1.00;;;11.20;99.90;;;;;;4998000;28;20214;-63
2023/04/01 07:47:35;;;;;;;1.10;1.10;;;11.20;99.90;;;;;;4994859;28;20212;-65
2023/04/01 07:50:13;;;;;;;0.88;0.88;;;11.30;99.90;;;;;;4993724;28;20212;-63
2023/04/01 07:52:49;;;;;;;0.70;0.70;;;11.30;99.90;;;;;;4996059;28;20189;-63
2023/04/01 07:55:23;;;;;;;0.88;0.88;;;11.30;99.90;;;;;;4994067;28;20303;-65
2023/04/01 07:57:56;;;;;;;0.88;0.88;;;11.30;99.90;;;;;;4993762;28;20287;-65
2023/04/01 08:00:28;;;;;;;0.73;0.73;;;11.30;99.90;;;;;;4993823;28;20240;-65
2023/04/01 08:03:22;;;;;;;0.80;0.80;;;11.20;99.90;;;;;;4997576;28;20216;-65
2023/04/01 08:05:55;;;;;;;0.70;0.70;;;11.20;99.90;;;;;;5002124;28;20234;-64
2023/04/01 08:08:33;;;;;;;0.80;0.80;;;11.20;99.90;;;;;;4994114;28;20212;-62
2023/04/01 08:11:12;;;;;;;0.70;0.70;;;11.20;99.90;;;;;;4994705;28;20205;-62
2023/04/01 08:13:46;;;;;;;0.60;0.60;;;11.20;99.90;;;;;;4999230;28;20210;-64
2023/04/01 08:16:21;;;;;;;0.60;0.60;;;11.20;99.90;;;;;;5001702;28;20229;-63
2023/04/01 08:18:58;;;;;;;0.60;0.60;;;11.30;99.90;;;;;;5000030;28;20228;-65
2023/04/01 08:21:28;;;;;;;0.63;0.63;;;11.30;99.90;;;;;;4993391;28;20198;-64
2023/04/01 08:23:58;;;;;;;0.53;0.53;;;11.20;99.90;;;;;;4993148;28;20214;-64
2023/04/01 08:26:40;;;;;;;0.77;0.77;;;11.20;99.90;;;;;;4992590;28;20244;-63
2023/04/01 08:29:11;;;;;;;0.70;0.70;;;11.20;99.90;;;;;;4992641;28;20622;-63
2023/04/01 08:31:41;;;;;;;1.50;1.40;;;11.20;99.90;;;;;;4992601;28;20301;-64
2023/04/01 08:34:14;;;;;;;1.60;1.50;;;11.10;99.90;;;;;;4993162;28;20586;-63
2023/04/01 08:36:44;;;;;;;1.55;1.45;;;11.10;99.90;;;;;;4992247;28;20240;-63
2023/04/01 08:39:17;;;;;;;0.88;0.88;;;11.10;99.90;;;;;;4992436;28;20237;-64
2023/04/01 08:42:14;;;;;;;0.60;0.60;;;11.00;99.90;;;;;;4992672;28;20709;-64
2023/04/01 08:45:08;;;;;;;0.80;0.80;;;11.00;99.90;;;;;;4992703;28;20268;-64
2023/04/01 08:47:55;;;;;;;0.53;0.53;;;11.00;99.90;;;;;;4992985;28;20232;-64
2023/04/01 08:50:41;;;;;;;0.77;0.77;;;11.00;99.90;;;;;;4992839;28;20739;-65
2023/04/01 08:53:16;;;;;;;1.10;1.10;;;11.00;99.90;;;;;;4992921;28;20292;-62
2023/04/01 08:55:57;;;;;;;0.63;0.63;;;11.10;99.90;;;;;;4993410;28;20291;-64
2023/04/01 08:59:05;;;;;;;0.57;0.57;;;11.00;99.90;;;;;;4992405;28;20249;-62
2023/04/01 09:01:51;;;;;;;0.63;0.63;;;11.00;99.90;;;;;;4993016;28;20209;-63
2023/04/01 09:04:33;;;;;;;0.50;0.50;;;10.90;99.90;;;;;;4992553;28;20220;-63
2023/04/01 09:07:10;;;;;;;0.43;0.43;;;10.90;99.90;;;;;;4992398;28;20229;-64
2023/04/01 09:09:56;;;;;;;0.60;0.60;;;10.90;99.90;;;;;;4991949;28;20264;-64
2023/04/01 09:12:37;;;;;;;0.52;0.52;;;10.90;99.90;;;;;;4991965;28;20591;-64
2023/04/01 09:15:31;;;;;;;0.60;0.60;;;10.90;99.90;;;;;;4992331;28;20297;-63
2023/04/01 09:18:42;;;;;;;0.70;0.70;;;10.90;99.90;;;;;;4981923;28;20569;-64
2023/04/01 09:21:38;;;;;;;0.50;0.50;;;10.90;99.90;;;;;;4991751;28;20216;-63
2023/04/01 09:24:26;;;;;;;0.60;0.60;;;10.80;99.90;;;;;;4990910;28;20216;-64
2023/04/01 09:27:05;;;;;;;0.50;0.50;;;10.80;99.90;;;;;;4992375;28;20234;-64
2023/04/01 09:30:15;;;;;;;0.70;0.70;;;10.90;99.90;;;;;;4992057;28;20217;-62
2023/04/01 09:33:16;;;;;;;0.30;0.30;;;10.90;99.90;;;;;;4964545;28;20240;-64
2023/04/01 09:35:47;;;;;;;0.60;0.60;;;10.90;99.90;;;;;;4992053;28;20312;-64
2023/04/01 09:38:29;;;;;;;1.17;0.83;;;10.90;99.90;;;;;;4992235;28;20322;-63
2023/04/01 09:40:58;;;;;;;0.60;0.60;;;10.90;99.90;;;;;;4991770;28;20245;-63
2023/04/01 09:43:34;;;;;;;0.60;0.60;;;10.90;99.90;;;;;;4991875;28;20693;-63
2023/04/01 09:46:13;;;;;;;0.50;0.50;;;10.90;99.90;;;;;;4992394;28;20257;-63
2023/04/01 09:49:09;;;;;;;0.50;0.50;;;11.00;99.90;;;;;;4993607;28;20206;-64
2023/04/01 09:51:40;;;;;;;0.40;0.40;;;11.00;99.90;;;;;;4996563;28;20210;-63
2023/04/01 09:54:19;;;;;;;0.50;0.50;;;11.00;99.90;;;;;;4997927;28;20205;-63
2023/04/01 09:57:22;;;;;;;0.60;0.60;;;11.00;99.90;;;;;;4996300;28;20229;-64
2023/04/01 10:00:16;;;;;;;0.70;0.70;;;11.10;99.90;;;;;;4996650;28;20221;-64
2023/04/01 10:03:12;;;;;;;1.00;1.00;;;11.10;99.90;;;;;;4995971;28;20853;-66
2023/04/01 10:06:14;;;;;;;0.80;0.80;;;11.10;99.90;;;;;;4998311;28;20226;-64
2023/04/01 10:09:22;;;;;;;0.70;0.70;;;11.20;99.90;;;;;;4998988;28;20198;-64
2023/04/01 10:12:22;;;;;;;0.60;0.60;;;11.20;99.90;;;;;;4972338;28;20210;-63
2023/04/01 10:15:39;;;;;;;0.57;0.57;;;11.20;99.90;;;;;;4961318;28;20630;-63
2023/04/01 10:18:39;;;;;;;0.50;0.50;;;11.20;99.90;;;;;;4994129;28;20210;-63
2023/04/01 10:21:30;;;;;;;0.60;0.60;;;11.10;99.90;;;;;;4993974;28;20584;-64
2023/04/01 10:24:25;;;;;;;0.53;0.53;;;11.10;99.90;;;;;;4993998;28;20301;-63
2023/04/01 10:27:16;;;;;;;0.33;0.33;;;11.20;99.90;;;;;;4994086;28;20225;-64
2023/04/01 10:30:18;;;;;;;0.53;0.53;;;11.10;99.90;;;;;;4994249;28;20556;-64
2023/04/01 10:33:18;;;;;;;1.13;1.13;;;11.20;99.90;;;;;;4994276;28;20213;-64
2023/04/01 10:36:18;;;;;;;0.97;0.97;;;11.20;99.90;;;;;;4995268;28;20245;-62
2023/04/01 10:39:23;;;;;;;0.70;0.70;;;11.20;99.90;;;;;;4994641;28;20242;-64
2023/04/01 10:42:27;;;;;;;0.80;0.80;;;11.20;99.90;;;;;;4994665;28;20819;-64
2023/04/01 10:45:21;;;;;;;0.63;0.63;;;11.20;99.90;;;;;;4994645;28;20275;-64
2023/04/01 10:48:10;;;;;;;0.50;0.50;;;11.30;99.90;;;;;;4995310;28;20212;-65
2023/04/01 10:51:15;;;;;;;0.30;0.30;;;11.20;99.90;;;;;;4995396;28;20210;-64
2023/04/01 10:53:56;;;;;;;0.47;0.47;;;11.20;99.90;;;;;;4997866;28;20245;-64
2023/04/01 10:56:41;;;;;;;0.60;0.60;;;11.10;99.90;;;;;;4997525;28;20230;-64
2023/04/01 10:59:46;;;;;;;0.87;0.87;;;11.10;99.90;;;;;;5007804;28;20228;-64
2023/04/01 11:03:06;;;;;;;0.70;0.70;;;11.10;99.90;;;;;;4994707;28;20214;-64
2023/04/01 11:06:13;;;;;;;0.50;0.50;;;11.10;99.90;;;;;;4916648;29;20647;-65
2023/04/01 11:09:25;;;;;;;0.60;0.60;;;11.20;99.90;;;;;;4931285;29;20226;-64
2023/04/01 11:12:33;;;;;;;0.43;0.43;;;11.20;99.90;;;;;;4975078;28;20205;-63
2023/04/01 11:15:31;;;;;;;0.57;0.57;;;11.20;99.90;;;;;;4994422;28;20216;-65
2023/04/01 11:18:36;;;;;;;0.50;0.50;;;11.20;99.90;;;;;;4996346;28;20767;-62
2023/04/01 11:21:37;;;;;;;0.60;0.60;;;11.20;99.90;;;;;;4995830;28;20296;-63
2023/04/01 11:24:31;;;;;;;0.50;0.50;;;11.20;99.90;;;;;;4988164;28;20209;-62
2023/04/01 11:27:15;;;;;;;0.70;0.70;;;11.20;99.90;;;;;;4987710;28;20222;-65
2023/04/01 11:30:07;;;;;;;0.60;0.60;;;11.10;99.90;;;;;;4994994;28;20206;-63
2023/04/01 11:32:52;;;;;;;0.60;0.60;;;11.20;99.90;;;;;;4993434;28;20213;-64
2023/04/01 11:35:36;;;;;;;0.50;0.50;;;11.20;99.90;;;;;;4993467;28;20252;-63
2023/04/01 11:38:18;;;;;;;0.43;0.43;;;11.20;99.90;;;;;;4994279;28;20646;-64
2023/04/01 11:40:52;;;;;;;0.30;0.30;;;11.20;99.90;;;;;;4994620;28;20243;-64
2023/04/01 11:43:27;;;;;;;0.60;0.60;;;11.20;99.90;;;;;;4993796;28;20297;-64
2023/04/01 11:46:03;;;;;;;0.60;0.60;;;11.20;99.90;;;;;;4994050;28;20230;-65
2023/04/01 11:48:57;;;;;;;0.53;0.53;;;11.20;99.90;;;;;;4993970;28;20231;-65
2023/04/01 11:51:54;;;;;;;0.40;0.40;;;11.20;99.90;;;;;;4992963;28;20677;-64
2023/04/01 11:54:45;;;;;;;0.60;0.60;;;11.30;99.90;;;;;;4993307;28;20583;-65
2023/04/01 11:57:27;;;;;;;0.70;0.70;;;11.30;99.90;;;;;;4992723;28;20697;-63
2023/04/01 12:00:15;;;;;;;0.70;0.70;;;11.30;99.90;;;;;;4992673;28;20273;-63
2023/04/01 12:02:59;;;;;;;0.50;0.50;;;11.30;99.90;;;;;;4992998;28;20213;-64
2023/04/01 12:05:40;;;;;;;0.47;0.47;;;11.30;99.90;;;;;;4992708;28;20720;-64
2023/04/01 12:08:24;;;;;;;0.60;0.60;;;11.30;99.90;;;;;;4992758;28;20210;-63
2023/04/01 12:10:58;;;;;;;0.40;0.40;;;11.30;99.90;;;;;;4991780;28;20205;-63
2023/04/01 12:13:35;;;;;;;0.60;0.60;;;11.30;99.90;;;;;;4989517;28;20206;-63
2023/04/01 12:16:14;;;;;;;0.60;0.60;;;11.30;99.90;;;;;;4982370;28;20236;-64
2023/04/01 12:18:47;;;;;;;0.50;0.50;;;11.30;99.90;;;;;;4990893;28;20193;-64
2023/04/01 12:21:24;;;;;;;0.70;0.70;;;11.30;99.90;;;;;;4970910;28;20211;-65
2023/04/01 12:24:14;;;;;;;0.50;0.50;;;11.20;99.90;;;;;;4971411;28;20206;-63
2023/04/01 12:26:54;;;;;;;0.30;0.30;;;11.20;99.90;;;;;;4970945;28;20230;-62
2023/04/01 12:29:47;;;;;;;0.53;0.53;;;11.30;99.90;;;;;;4970583;28;20257;-63
2023/04/01 12:32:25;;;;;;;0.30;0.30;;;11.30;99.90;;;;;;4982052;28;20571;-63
2023/04/01 12:35:06;;;;;;;0.53;0.53;;;11.30;99.90;;;;;;4990733;28;20571;-64
2023/04/01 12:37:40;;;;;;;0.40;0.40;;;11.30;99.90;;;;;;4990330;28;20216;-64
2023/04/01 12:40:25;;;;;;;0.60;0.60;;;11.40;99.90;;;;;;4989851;28;20965;-65
2023/04/01 12:43:02;;;;;;;0.33;0.33;;;11.40;99.90;;;;;;4990634;28;20300;-62
2023/04/01 12:45:31;;;;;;;0.50;0.50;;;11.40;99.90;;;;;;4989957;28;20233;-63
2023/04/01 12:48:39;;;;;;;0.47;0.47;;;11.40;99.90;;;;;;4990456;28;20619;-63
2023/04/01 12:51:36;;;;;;;0.50;0.50;;;11.40;99.90;;;;;;4989952;28;20297;-64
2023/04/01 12:54:29;;;;;;;0.40;0.40;;;11.50;99.90;;;;;;4997015;28;20213;-63
2023/04/01 12:57:10;;;;;;;0.50;0.50;;;11.50;99.90;;;;;;4991200;28;20344;-62
2023/04/01 12:59:54;;;;;;;0.50;0.50;;;11.50;99.90;;;;;;4990351;28;20313;-64
2023/04/01 13:02:29;;;;;;;0.40;0.40;;;11.50;99.90;;;;;;4996027;28;20220;-64
2023/04/01 13:05:15;;;;;;;0.70;0.70;;;11.60;99.90;;;;;;4992491;28;20185;-62
2023/04/01 13:08:05;;;;;;;0.43;0.40;;;11.50;99.90;;;;;;4993370;28;20293;-65
2023/04/01 13:10:45;;;;;;;0.30;0.30;;;11.50;99.90;;;;;;4990777;28;20206;-64
2023/04/01 13:13:33;;;;;;;0.30;0.30;;;11.40;99.90;;;;;;4998169;28;20209;-64
2023/04/01 13:16:11;;;;;;;0.45;0.45;;;11.40;99.90;;;;;;4991313;28;20712;-65
2023/04/01 13:18:50;;;;;;;0.40;0.40;;;11.50;99.90;;;;;;5002909;28;20240;-65
2023/04/01 13:21:24;;;;;;;0.30;0.30;;;11.50;99.90;;;;;;4990828;28;20216;-64
2023/04/01 13:24:00;;;;;;;0.30;0.30;;;11.60;99.90;;;;;;4996574;28;20555;-64
2023/04/01 13:26:38;;;;;;;0.43;0.43;;;11.60;99.90;;;;;;4994762;28;20240;-64
2023/04/01 13:29:12;;;;;;;0.57;0.57;;;11.60;99.90;;;;;;4995192;28;20216;-64
2023/04/01 13:31:59;;;;;;;0.60;0.60;;;11.60;99.90;;;;;;4993958;28;20231;-64
2023/04/01 13:34:38;;;;;;;0.50;0.50;;;11.70;99.90;;;;;;4994288;28;20226;-62
2023/04/01 13:37:16;;;;;;;0.30;0.30;;;11.70;99.90;;;;;;4994366;28;20636;-64
2023/04/01 13:39:58;;;;;;;0.50;0.50;;;11.70;99.90;;;;;;4994622;28;20312;-64